sensor_id;sensor_type;location;lat;lon;timestamp;pressure;altitude;pressure_sealevel;temperature;humidity
12247;BME280;6186;52.022;4.692;2023-08-20T00:01:43;102126.00;;;20.49;100.00
12247;BME280;6186;52.022;4.692;2023-08-20T00:04:08;102123.25;;;20.50;100.00
12247;BME280;6186;52.022;4.692;2023-08-20T00:06:34;102129.56;;;20.49;100.00
12247;BME280;6186;52.022;4.692;2023-08-20T00:08:59;102133.00;;;20.51;100.00
12247;BME280;6186;52.022;4.692;2023-08-20T00:11:25;102141.03;;;20.51;100.00
12247;BME280;6186;52.022;4.692;2023-08-20T00:13:50;102144.66;;;20.50;100.00
12247;BME280;6186;52.022;4.692;2023-08-20T00:16:15;102142.88;;;20.51;100.00
12247;BME280;6186;52.022;4.692;2023-08-20T00:18:41;102145.53;;;20.51;100.00
12247;BME280;6186;52.022;4.692;2023-08-20T00:21:06;102131.28;;;20.50;100.00
12247;BME280;6186;52.022;4.692;2023-08-20T00:23:32;102130.22;;;20.54;100.00
12247;BME280;6186;52.022;4.692;2023-08-20T00:25:57;102133.81;;;20.53;100.00
12247;BME280;6186;52.022;4.692;2023-08-20T00:28:23;102138.31;;;20.53;100.00
12247;BME280;6186;52.022;4.692;2023-08-20T00:30:48;102138.44;;;20.50;100.00
12247;BME280;6186;52.022;4.692;2023-08-20T00:33:13;102124.91;;;20.34;100.00
12247;BME280;6186;52.022;4.692;2023-08-20T00:35:38;102157.38;;;20.45;100.00
12247;BME280;6186;52.022;4.692;2023-08-20T00:38:04;102162.75;;;20.45;100.00
12247;BME280;6186;52.022;4.692;2023-08-20T00:40:30;102174.34;;;20.44;100.00
12247;BME280;6186;52.022;4.692;2023-08-20T00:42:56;102180.66;;;20.43;100.00
12247;BME280;6186;52.022;4.692;2023-08-20T00:45:22;102180.75;;;20.42;100.00
12247;BME280;6186;52.022;4.692;2023-08-20T00:47:48;102183.41;;;20.42;100.00
12247;BME280;6186;52.022;4.692;2023-08-20T00:50:13;102185.31;;;20.38;100.00
12247;BME280;6186;52.022;4.692;2023-08-20T00:52:38;102185.28;;;20.40;100.00
12247;BME280;6186;52.022;4.692;2023-08-20T00:55:08;102193.34;;;20.38;100.00
12247;BME280;6186;52.022;4.692;2023-08-20T00:57:35;102188.06;;;20.37;100.00
12247;BME280;6186;52.022;4.692;2023-08-20T01:00:00;102181.84;;;20.36;100.00
12247;BME280;6186;52.022;4.692;2023-08-20T01:02:26;102183.75;;;20.34;100.00
12247;BME280;6186;52.022;4.692;2023-08-20T01:04:51;102184.59;;;20.35;100.00
12247;BME280;6186;52.022;4.692;2023-08-20T01:10:29;102174.97;;;20.31;100.00
12247;BME280;6186;52.022;4.692;2023-08-20T01:12:54;102171.56;;;20.27;100.00
12247;BME280;6186;52.022;4.692;2023-08-20T01:15:20;102182.41;;;20.24;100.00
12247;BME280;6186;52.022;4.692;2023-08-20T01:17:45;102172.91;;;20.17;100.00
12247;BME280;6186;52.022;4.692;2023-08-20T01:20:11;102187.19;;;20.16;100.00
12247;BME280;6186;52.022;4.692;2023-08-20T01:30:48;102188.94;;;20.17;100.00
12247;BME280;6186;52.022;4.692;2023-08-20T01:33:14;102187.06;;;20.19;100.00
12247;BME280;6186;52.022;4.692;2023-08-20T01:35:39;102193.38;;;20.18;100.00
12247;BME280;6186;52.022;4.692;2023-08-20T01:38:04;102189.06;;;20.14;100.00
12247;BME280;6186;52.022;4.692;2023-08-20T01:40:30;102190.84;;;20.14;100.00
12247;BME280;6186;52.022;4.692;2023-08-20T01:42:56;102200.81;;;20.10;100.00
12247;BME280;6186;52.022;4.692;2023-08-20T01:45:22;102194.72;;;20.07;100.00
12247;BME280;6186;52.022;4.692;2023-08-20T01:47:47;102196.66;;;20.03;100.00
12247;BME280;6186;52.022;4.692;2023-08-20T01:50:12;102196.00;;;19.98;100.00
12247;BME280;6186;52.022;4.692;2023-08-20T01:52:38;102197.06;;;19.94;100.00
12247;BME280;6186;52.022;4.692;2023-08-20T01:55:04;102194.56;;;19.90;100.00
12247;BME280;6186;52.022;4.692;2023-08-20T01:57:29;102188.44;;;19.88;100.00
12247;BME280;6186;52.022;4.692;2023-08-20T01:59:54;102191.25;;;19.85;100.00
12247;BME280;6186;52.022;4.692;2023-08-20T02:02:19;102191.31;;;19.83;100.00
12247;BME280;6186;52.022;4.692;2023-08-20T02:04:45;102191.41;;;19.80;100.00
12247;BME280;6186;52.022;4.692;2023-08-20T02:07:10;102193.34;;;19.77;100.00
12247;BME280;6186;52.022;4.692;2023-08-20T02:09:35;102185.47;;;19.74;100.00
12247;BME280;6186;52.022;4.692;2023-08-20T02:12:00;102187.41;;;19.70;100.00
12247;BME280;6186;52.022;4.692;2023-08-20T02:14:25;102181.28;;;19.66;100.00
12247;BME280;6186;52.022;4.692;2023-08-20T02:16:51;102170.69;;;19.65;100.00
12247;BME280;6186;52.022;4.692;2023-08-20T02:19:16;102160.31;;;19.57;100.00
12247;BME280;6186;52.022;4.692;2023-08-20T02:21:41;102172.69;;;19.60;100.00
12247;BME280;6186;52.022;4.692;2023-08-20T02:24:07;102180.78;;;19.58;100.00
12247;BME280;6186;52.022;4.692;2023-08-20T02:26:32;102185.25;;;19.58;100.00
12247;BME280;6186;52.022;4.692;2023-08-20T02:28:57;102190.66;;;19.56;100.00
12247;BME280;6186;52.022;4.692;2023-08-20T02:31:23;102189.03;;;19.52;100.00
12247;BME280;6186;52.022;4.692;2023-08-20T02:33:48;102189.03;;;19.52;100.00
12247;BME280;6186;52.022;4.692;2023-08-20T02:36:13;102190.88;;;19.50;100.00
12247;BME280;6186;52.022;4.692;2023-08-20T02:38:39;102189.28;;;19.46;100.00
12247;BME280;6186;52.022;4.692;2023-08-20T02:41:04;102192.94;;;19.44;100.00
12247;BME280;6186;52.022;4.692;2023-08-20T02:43:29;102181.50;;;19.40;100.00
12247;BME280;6186;52.022;4.692;2023-08-20T02:45:54;102181.44;;;19.42;100.00
12247;BME280;6186;52.022;4.692;2023-08-20T02:48:20;102186.78;;;19.42;100.00
12247;BME280;6186;52.022;4.692;2023-08-20T02:50:45;102186.78;;;19.42;100.00
12247;BME280;6186;52.022;4.692;2023-08-20T02:53:10;102197.47;;;19.42;100.00
12247;BME280;6186;52.022;4.692;2023-08-20T02:55:35;102201.94;;;19.41;100.00
12247;BME280;6186;52.022;4.692;2023-08-20T02:58:01;102201.06;;;19.41;100.00
12247;BME280;6186;52.022;4.692;2023-08-20T03:00:26;102206.41;;;19.41;100.00
12247;BME280;6186;52.022;4.692;2023-08-20T03:02:52;102207.31;;;19.40;100.00
12247;BME280;6186;52.022;4.692;2023-08-20T03:05:17;102210.94;;;19.39;100.00
12247;BME280;6186;52.022;4.692;2023-08-20T03:07:42;102225.19;;;19.39;100.00
12247;BME280;6186;52.022;4.692;2023-08-20T03:10:07;102231.38;;;19.40;100.00
12247;BME280;6186;52.022;4.692;2023-08-20T03:12:33;102223.34;;;19.40;100.00
12247;BME280;6186;52.022;4.692;2023-08-20T03:14:59;102219.84;;;19.39;100.00
12247;BME280;6186;52.022;4.692;2023-08-20T03:17:24;102220.81;;;19.37;100.00
12247;BME280;6186;52.022;4.692;2023-08-20T03:20:00;102214.78;;;19.32;100.00
12247;BME280;6186;52.022;4.692;2023-08-20T03:22:26;102219.19;;;19.33;100.00
12247;BME280;6186;52.022;4.692;2023-08-20T03:24:52;102219.22;;;19.31;100.00
12247;BME280;6186;52.022;4.692;2023-08-20T03:27:18;102219.28;;;19.30;100.00
12247;BME280;6186;52.022;4.692;2023-08-20T03:29:44;102223.00;;;19.26;100.00
12247;BME280;6186;52.022;4.692;2023-08-20T03:32:09;102217.66;;;19.26;100.00
12247;BME280;6186;52.022;4.692;2023-08-20T03:34:35;102215.09;;;19.23;100.00
12247;BME280;6186;52.022;4.692;2023-08-20T03:37:00;102211.69;;;19.19;100.00
12247;BME280;6186;52.022;4.692;2023-08-20T03:39:26;102211.75;;;19.18;100.00
12247;BME280;6186;52.022;4.692;2023-08-20T03:41:52;102214.56;;;19.15;100.00
12247;BME280;6186;52.022;4.692;2023-08-20T03:44:18;102216.50;;;19.10;100.00
12247;BME280;6186;52.022;4.692;2023-08-20T03:46:43;102222.78;;;19.09;100.00
12247;BME280;6186;52.022;4.692;2023-08-20T03:49:08;102214.03;;;19.05;100.00
12247;BME280;6186;52.022;4.692;2023-08-20T03:51:33;102216.81;;;19.02;100.00
12247;BME280;6186;52.022;4.692;2023-08-20T03:53:59;102199.47;;;18.91;100.00
12247;BME280;6186;52.022;4.692;2023-08-20T03:56:24;102218.84;;;18.96;100.00
12247;BME280;6186;52.022;4.692;2023-08-20T03:58:50;102207.44;;;18.92;100.00
12247;BME280;6186;52.022;4.692;2023-08-20T04:01:15;102204.84;;;18.89;100.00
12247;BME280;6186;52.022;4.692;2023-08-20T04:03:40;102211.19;;;18.87;100.00
12247;BME280;6186;52.022;4.692;2023-08-20T04:06:05;102215.75;;;18.83;100.00
12247;BME280;6186;52.022;4.692;2023-08-20T04:08:30;102226.56;;;18.80;100.00
12247;BME280;6186;52.022;4.692;2023-08-20T04:10:56;102223.13;;;18.76;100.00
12247;BME280;6186;52.022;4.692;2023-08-20T04:13:21;102229.44;;;18.74;100.00
12247;BME280;6186;52.022;4.692;2023-08-20T04:15:46;102224.22;;;18.71;100.00
12247;BME280;6186;52.022;4.692;2023-08-20T04:18:11;102241.22;;;18.68;100.00
12247;BME280;6186;52.022;4.692;2023-08-20T04:20:37;102243.94;;;18.67;100.00
12247;BME280;6186;52.022;4.692;2023-08-20T04:23:02;102254.63;;;18.67;100.00
12247;BME280;6186;52.022;4.692;2023-08-20T04:25:27;102254.75;;;18.64;100.00
12247;BME280;6186;52.022;4.692;2023-08-20T04:27:53;102259.28;;;18.60;100.00
12247;BME280;6186;52.022;4.692;2023-08-20T04:30:18;102258.47;;;18.58;100.00
12247;BME280;6186;52.022;4.692;2023-08-20T04:32:43;102254.19;;;18.54;100.00
12247;BME280;6186;52.022;4.692;2023-08-20T04:35:08;102259.56;;;18.53;100.00
12247;BME280;6186;52.022;4.692;2023-08-20T04:37:34;102264.94;;;18.51;100.00
12247;BME280;6186;52.022;4.692;2023-08-20T04:39:59;102272.13;;;18.49;100.00
12247;BME280;6186;52.022;4.692;2023-08-20T04:42:24;102265.13;;;18.47;100.00
12247;BME280;6186;52.022;4.692;2023-08-20T04:44:49;102273.16;;;18.45;100.00
12247;BME280;6186;52.022;4.692;2023-08-20T04:47:15;102268.81;;;18.43;100.00
12247;BME280;6186;52.022;4.692;2023-08-20T04:49:40;102283.06;;;18.42;100.00
12247;BME280;6186;52.022;4.692;2023-08-20T04:52:06;102272.44;;;18.40;100.00
12247;BME280;6186;52.022;4.692;2023-08-20T04:54:31;102271.59;;;18.38;100.00
12247;BME280;6186;52.022;4.692;2023-08-20T04:56:56;102269.91;;;18.36;100.00
12247;BME280;6186;52.022;4.692;2023-08-20T04:59:21;102281.44;;;18.36;100.00
12247;BME280;6186;52.022;4.692;2023-08-20T05:01:46;102275.25;;;18.36;100.00
12247;BME280;6186;52.022;4.692;2023-08-20T05:04:12;102272.53;;;18.37;100.00
12247;BME280;6186;52.022;4.692;2023-08-20T05:06:37;102272.53;;;18.37;100.00
12247;BME280;6186;52.022;4.692;2023-08-20T05:09:02;102267.22;;;18.37;100.00
12247;BME280;6186;52.022;4.692;2023-08-20T05:11:28;102270.78;;;18.36;100.00
12247;BME280;6186;52.022;4.692;2023-08-20T05:13:54;102275.22;;;18.37;100.00
12247;BME280;6186;52.022;4.692;2023-08-20T05:16:20;102273.38;;;18.39;100.00
12247;BME280;6186;52.022;4.692;2023-08-20T05:18:45;102275.16;;;18.39;100.00
12247;BME280;6186;52.022;4.692;2023-08-20T05:21:10;102274.19;;;18.41;100.00
12247;BME280;6186;52.022;4.692;2023-08-20T05:23:35;102281.28;;;18.42;100.00
12247;BME280;6186;52.022;4.692;2023-08-20T05:26:01;102281.28;;;18.42;100.00
12247;BME280;6186;52.022;4.692;2023-08-20T05:28:26;102275.81;;;18.45;100.00
12247;BME280;6186;52.022;4.692;2023-08-20T05:30:55;102266.22;;;18.40;100.00
12247;BME280;6186;52.022;4.692;2023-08-20T05:33:20;102282.81;;;18.49;100.00
12247;BME280;6186;52.022;4.692;2023-08-20T05:35:45;102280.25;;;18.46;100.00
12247;BME280;6186;52.022;4.692;2023-08-20T05:38:10;102286.22;;;18.53;100.00
12247;BME280;6186;52.022;4.692;2023-08-20T05:40:36;102279.03;;;18.55;100.00
12247;BME280;6186;52.022;4.692;2023-08-20T05:43:01;102274.53;;;18.57;100.00
12247;BME280;6186;52.022;4.692;2023-08-20T05:45:26;102261.25;;;18.55;100.00
12247;BME280;6186;52.022;4.692;2023-08-20T05:47:51;102267.19;;;18.63;100.00
12247;BME280;6186;52.022;4.692;2023-08-20T05:50:17;102274.16;;;18.67;100.00
12247;BME280;6186;52.022;4.692;2023-08-20T05:52:42;102274.03;;;18.70;100.00
12247;BME280;6186;52.022;4.692;2023-08-20T05:55:07;102273.00;;;18.74;100.00
12247;BME280;6186;52.022;4.692;2023-08-20T05:57:32;102271.09;;;18.78;100.00
12247;BME280;6186;52.022;4.692;2023-08-20T05:59:58;102283.41;;;18.82;100.00
12247;BME280;6186;52.022;4.692;2023-08-20T06:02:23;102277.03;;;18.86;100.00
12247;BME280;6186;52.022;4.692;2023-08-20T06:04:48;102274.25;;;18.89;100.00
12247;BME280;6186;52.022;4.692;2023-08-20T06:07:13;102265.47;;;18.86;100.00
12247;BME280;6186;52.022;4.692;2023-08-20T06:09:39;102281.16;;;18.95;100.00
12247;BME280;6186;52.022;4.692;2023-08-20T06:12:04;102281.06;;;18.98;100.00
12247;BME280;6186;52.022;4.692;2023-08-20T06:14:29;102277.34;;;19.02;100.00
12247;BME280;6186;52.022;4.692;2023-08-20T06:16:54;102279.81;;;19.06;100.00
12247;BME280;6186;52.022;4.692;2023-08-20T06:19:20;102289.53;;;19.09;100.00
12247;BME280;6186;52.022;4.692;2023-08-20T06:21:45;102277.91;;;19.10;100.00
12247;BME280;6186;52.022;4.692;2023-08-20T06:24:10;102279.53;;;19.14;100.00
12247;BME280;6186;52.022;4.692;2023-08-20T06:26:35;102266.25;;;19.12;100.00
12247;BME280;6186;52.022;4.692;2023-08-20T06:29:00;102281.06;;;19.21;100.00
12247;BME280;6186;52.022;4.692;2023-08-20T06:31:26;102280.88;;;19.25;100.00
12247;BME280;6186;52.022;4.692;2023-08-20T06:33:51;102285.25;;;19.28;100.00
12247;BME280;6186;52.022;4.692;2023-08-20T06:36:16;102284.25;;;19.30;100.00
12247;BME280;6186;52.022;4.692;2023-08-20T06:38:41;102282.38;;;19.34;100.00
12247;BME280;6186;52.022;4.692;2023-08-20T06:41:06;102285.84;;;19.36;100.00
12247;BME280;6186;52.022;4.692;2023-08-20T06:43:32;102285.78;;;19.37;100.00
12247;BME280;6186;52.022;4.692;2023-08-20T06:45:57;102282.09;;;19.40;100.00
12247;BME280;6186;52.022;4.692;2023-08-20T06:48:22;102279.22;;;19.46;100.00
12247;BME280;6186;52.022;4.692;2023-08-20T06:50:47;102273.78;;;19.47;100.00
12247;BME280;6186;52.022;4.692;2023-08-20T06:53:13;102281.72;;;19.50;100.00
12247;BME280;6186;52.022;4.692;2023-08-20T06:55:38;102290.34;;;19.57;100.00
12247;BME280;6186;52.022;4.692;2023-08-20T06:58:03;102291.16;;;19.59;100.00
12247;BME280;6186;52.022;4.692;2023-08-20T07:00:28;102296.31;;;19.63;100.00
12247;BME280;6186;52.022;4.692;2023-08-20T07:02:54;102299.75;;;19.67;100.00
12247;BME280;6186;52.022;4.692;2023-08-20T07:05:19;102294.28;;;19.70;100.00
12247;BME280;6186;52.022;4.692;2023-08-20T07:07:45;102301.22;;;19.74;100.00
12247;BME280;6186;52.022;4.692;2023-08-20T07:10:10;102302.84;;;19.78;100.00
12247;BME280;6186;52.022;4.692;2023-08-20T07:12:35;102307.09;;;19.84;100.00
12247;BME280;6186;52.022;4.692;2023-08-20T07:15:00;102309.59;;;19.88;100.00
12247;BME280;6186;52.022;4.692;2023-08-20T07:17:26;102322.72;;;19.94;100.00
12247;BME280;6186;52.022;4.692;2023-08-20T07:19:51;102311.81;;;19.99;100.00
12247;BME280;6186;52.022;4.692;2023-08-20T07:22:16;102316.91;;;20.05;100.00
12247;BME280;6186;52.022;4.692;2023-08-20T07:24:41;102313.19;;;20.09;100.00
12247;BME280;6186;52.022;4.692;2023-08-20T07:27:06;102318.22;;;20.16;100.00
12247;BME280;6186;52.022;4.692;2023-08-20T07:29:32;102319.88;;;20.20;100.00
12247;BME280;6186;52.022;4.692;2023-08-20T07:31:57;102320.41;;;20.28;100.00
12247;BME280;6186;52.022;4.692;2023-08-20T07:34:22;102330.72;;;20.37;100.00
12247;BME280;6186;52.022;4.692;2023-08-20T07:36:48;102330.25;;;20.48;100.00
12247;BME280;6186;52.022;4.692;2023-08-20T07:39:13;102318.25;;;20.58;100.00
12247;BME280;6186;52.022;4.692;2023-08-20T07:41:38;102328.47;;;20.69;100.00
12247;BME280;6186;52.022;4.692;2023-08-20T07:44:03;102320.88;;;20.80;100.00
12247;BME280;6186;52.022;4.692;2023-08-20T07:46:29;102324.72;;;20.93;100.00
12247;BME280;6186;52.022;4.692;2023-08-20T07:48:54;102326.16;;;21.01;100.00
12247;BME280;6186;52.022;4.692;2023-08-20T07:51:19;102329.38;;;21.09;100.00
12247;BME280;6186;52.022;4.692;2023-08-20T07:53:45;102325.38;;;21.18;100.00
12247;BME280;6186;52.022;4.692;2023-08-20T07:56:10;102337.44;;;21.28;100.00
12247;BME280;6186;52.022;4.692;2023-08-20T07:58:35;102330.56;;;21.41;100.00
12247;BME280;6186;52.022;4.692;2023-08-20T08:01:00;102338.84;;;21.55;100.00
12247;BME280;6186;52.022;4.692;2023-08-20T08:03:26;102340.88;;;21.69;100.00
12247;BME280;6186;52.022;4.692;2023-08-20T08:05:51;102343.69;;;21.84;100.00
12247;BME280;6186;52.022;4.692;2023-08-20T08:08:17;102339.63;;;21.94;100.00
12247;BME280;6186;52.022;4.692;2023-08-20T08:10:43;102341.78;;;22.05;100.00
12247;BME280;6186;52.022;4.692;2023-08-20T08:13:08;102342.00;;;22.19;100.00
12247;BME280;6186;52.022;4.692;2023-08-20T08:15:33;102342.03;;;22.36;100.00
12247;BME280;6186;52.022;4.692;2023-08-20T08:17:59;102343.94;;;22.51;100.00
12247;BME280;6186;52.022;4.692;2023-08-20T08:20:24;102347.03;;;22.61;100.00
12247;BME280;6186;52.022;4.692;2023-08-20T08:22:49;102339.22;;;22.73;100.00
12247;BME280;6186;52.022;4.692;2023-08-20T08:25:14;102342.38;;;22.81;100.00
12247;BME280;6186;52.022;4.692;2023-08-20T08:27:40;102351.22;;;23.00;100.00
12247;BME280;6186;52.022;4.692;2023-08-20T08:30:05;102351.28;;;23.16;100.00
12247;BME280;6186;52.022;4.692;2023-08-20T08:32:31;102350.84;;;23.23;100.00
12247;BME280;6186;52.022;4.692;2023-08-20T08:34:56;102345.72;;;23.36;100.00
12247;BME280;6186;52.022;4.692;2023-08-20T08:37:21;102340.63;;;23.47;100.00
12247;BME280;6186;52.022;4.692;2023-08-20T08:39:46;102349.03;;;23.57;100.00
12247;BME280;6186;52.022;4.692;2023-08-20T08:42:12;102346.47;;;23.71;100.00
12247;BME280;6186;52.022;4.692;2023-08-20T08:44:39;102352.00;;;23.83;100.00
12247;BME280;6186;52.022;4.692;2023-08-20T08:47:05;102353.84;;;23.98;100.00
12247;BME280;6186;52.022;4.692;2023-08-20T08:49:33;102345.09;;;24.10;100.00
12247;BME280;6186;52.022;4.692;2023-08-20T08:51:59;102351.06;;;24.15;100.00
12247;BME280;6186;52.022;4.692;2023-08-20T08:54:25;102346.72;;;24.28;100.00
12247;BME280;6186;52.022;4.692;2023-08-20T08:56:51;102353.09;;;24.42;100.00
12247;BME280;6186;52.022;4.692;2023-08-20T08:59:16;102356.06;;;24.53;100.00
12247;BME280;6186;52.022;4.692;2023-08-20T09:01:42;102343.09;;;24.59;100.00
12247;BME280;6186;52.022;4.692;2023-08-20T09:04:07;102354.63;;;24.77;100.00
12247;BME280;6186;52.022;4.692;2023-08-20T09:06:49;102359.97;;;24.92;100.00
12247;BME280;6186;52.022;4.692;2023-08-20T09:09:17;102356.22;;;25.09;100.00
12247;BME280;6186;52.022;4.692;2023-08-20T09:11:43;102355.34;;;25.37;100.00
12247;BME280;6186;52.022;4.692;2023-08-20T09:14:20;102351.06;;;25.62;100.00
12247;BME280;6186;52.022;4.692;2023-08-20T09:16:45;102351.00;;;25.90;100.00
12247;BME280;6186;52.022;4.692;2023-08-20T09:19:11;102351.81;;;26.19;100.00
12247;BME280;6186;52.022;4.692;2023-08-20T09:21:36;102359.03;;;26.45;100.00
12247;BME280;6186;52.022;4.692;2023-08-20T09:24:01;102362.13;;;26.66;100.00
12247;BME280;6186;52.022;4.692;2023-08-20T09:26:27;102365.66;;;26.93;100.00
12247;BME280;6186;52.022;4.692;2023-08-20T09:28:55;102364.06;;;27.16;100.00
12247;BME280;6186;52.022;4.692;2023-08-20T09:31:20;102361.28;;;27.42;100.00
12247;BME280;6186;52.022;4.692;2023-08-20T09:33:54;102358.94;;;27.61;100.00
12247;BME280;6186;52.022;4.692;2023-08-20T09:36:30;102358.69;;;27.89;100.00
12247;BME280;6186;52.022;4.692;2023-08-20T09:38:55;102361.44;;;28.13;100.00
12247;BME280;6186;52.022;4.692;2023-08-20T09:41:21;102359.94;;;28.33;100.00
12247;BME280;6186;52.022;4.692;2023-08-20T09:43:48;102362.41;;;28.36;100.00
12247;BME280;6186;52.022;4.692;2023-08-20T09:46:19;102372.53;;;28.45;100.00
12247;BME280;6186;52.022;4.692;2023-08-20T09:48:48;102366.75;;;28.62;100.00
12247;BME280;6186;52.022;4.692;2023-08-20T09:51:19;102370.91;;;28.90;100.00
12247;BME280;6186;52.022;4.692;2023-08-20T09:56:27;102370.38;;;29.52;100.00
12247;BME280;6186;52.022;4.692;2023-08-20T09:58:53;102376.09;;;29.83;100.00
12247;BME280;6186;52.022;4.692;2023-08-20T10:01:19;102371.97;;;30.10;100.00
12247;BME280;6186;52.022;4.692;2023-08-20T10:03:45;102376.38;;;30.33;100.00
12247;BME280;6186;52.022;4.692;2023-08-20T10:06:11;102366.78;;;30.50;100.00
12247;BME280;6186;52.022;4.692;2023-08-20T10:08:36;102369.97;;;30.55;100.00
12247;BME280;6186;52.022;4.692;2023-08-20T10:11:01;102376.59;;;30.73;100.00
12247;BME280;6186;52.022;4.692;2023-08-20T10:13:27;102375.59;;;30.95;100.00
12247;BME280;6186;52.022;4.692;2023-08-20T10:15:52;102370.22;;;31.04;100.00
12247;BME280;6186;52.022;4.692;2023-08-20T10:18:21;102369.41;;;31.13;100.00
12247;BME280;6186;52.022;4.692;2023-08-20T10:20:50;102355.75;;;31.24;100.00
12247;BME280;6186;52.022;4.692;2023-08-20T10:23:20;102360.31;;;31.44;100.00
12247;BME280;6186;52.022;4.692;2023-08-20T10:25:45;102365.28;;;31.60;100.00
12247;BME280;6186;52.022;4.692;2023-08-20T10:28:21;102360.84;;;31.69;100.00
12247;BME280;6186;52.022;4.692;2023-08-20T10:33:30;102359.28;;;32.06;100.00
12247;BME280;6186;52.022;4.692;2023-08-20T10:35:55;102354.25;;;32.20;100.00
12247;BME280;6186;52.022;4.692;2023-08-20T10:38:22;102357.00;;;32.30;100.00
12247;BME280;6186;52.022;4.692;2023-08-20T10:40:58;102352.69;;;32.37;100.00
12247;BME280;6186;52.022;4.692;2023-08-20T10:43:34;102356.47;;;32.46;100.00
12247;BME280;6186;52.022;4.692;2023-08-20T10:48:36;102339.06;;;32.37;100.00
12247;BME280;6186;52.022;4.692;2023-08-20T10:51:17;102353.41;;;32.39;100.00
12247;BME280;6186;52.022;4.692;2023-08-20T10:53:48;102356.69;;;32.33;100.00
12247;BME280;6186;52.022;4.692;2023-08-20T10:56:17;102355.72;;;32.34;100.00
12247;BME280;6186;52.022;4.692;2023-08-20T10:58:44;102328.59;;;32.32;100.00
12247;BME280;6186;52.022;4.692;2023-08-20T11:01:22;102346.28;;;32.57;100.00
12247;BME280;6186;52.022;4.692;2023-08-20T11:03:49;102352.00;;;32.64;100.00
12247;BME280;6186;52.022;4.692;2023-08-20T11:06:15;102347.38;;;32.93;100.00
12247;BME280;6186;52.022;4.692;2023-08-20T11:08:41;102354.50;;;33.22;100.00
12247;BME280;6186;52.022;4.692;2023-08-20T11:11:07;102348.97;;;33.42;100.00
12247;BME280;6186;52.022;4.692;2023-08-20T11:13:33;102355.66;;;33.66;100.00
12247;BME280;6186;52.022;4.692;2023-08-20T11:15:59;102353.09;;;33.82;100.00
12247;BME280;6186;52.022;4.692;2023-08-20T11:18:32;102346.25;;;33.96;100.00
12247;BME280;6186;52.022;4.692;2023-08-20T11:20:57;102353.56;;;34.05;100.00
12247;BME280;6186;52.022;4.692;2023-08-20T11:23:22;102343.38;;;34.25;100.00
12247;BME280;6186;52.022;4.692;2023-08-20T11:25:48;102344.06;;;34.44;100.00
12247;BME280;6186;52.022;4.692;2023-08-20T11:28:13;102350.25;;;34.64;100.00
12247;BME280;6186;52.022;4.692;2023-08-20T11:30:38;102331.53;;;34.77;100.00
12247;BME280;6186;52.022;4.692;2023-08-20T11:33:04;102320.75;;;34.75;100.00
12247;BME280;6186;52.022;4.692;2023-08-20T11:35:29;102336.91;;;35.04;100.00
12247;BME280;6186;52.022;4.692;2023-08-20T11:37:55;102340.56;;;35.13;100.00
12247;BME280;6186;52.022;4.692;2023-08-20T11:40:21;102335.19;;;35.03;100.00
12247;BME280;6186;52.022;4.692;2023-08-20T11:42:47;102324.97;;;34.87;100.00
12247;BME280;6186;52.022;4.692;2023-08-20T11:45:12;102326.94;;;34.77;100.00
12247;BME280;6186;52.022;4.692;2023-08-20T11:47:41;102322.84;;;34.81;100.00
12247;BME280;6186;52.022;4.692;2023-08-20T11:50:08;102321.63;;;34.76;100.00
12247;BME280;6186;52.022;4.692;2023-08-20T11:52:34;102318.53;;;34.71;100.00
12247;BME280;6186;52.022;4.692;2023-08-20T11:55:00;102328.16;;;34.57;99.43
12247;BME280;6186;52.022;4.692;2023-08-20T11:57:26;102330.00;;;34.22;95.45
12247;BME280;6186;52.022;4.692;2023-08-20T11:59:51;102328.06;;;33.87;94.39
12247;BME280;6186;52.022;4.692;2023-08-20T12:02:27;102327.41;;;33.75;93.35
12247;BME280;6186;52.022;4.692;2023-08-20T12:04:55;102331.66;;;33.60;92.55
12247;BME280;6186;52.022;4.692;2023-08-20T12:07:25;102341.00;;;33.58;92.89
12247;BME280;6186;52.022;4.692;2023-08-20T12:09:50;102345.44;;;33.68;94.11
12247;BME280;6186;52.022;4.692;2023-08-20T12:12:19;102341.94;;;33.76;92.78
12247;BME280;6186;52.022;4.692;2023-08-20T12:14:44;102338.38;;;33.93;93.76
12247;BME280;6186;52.022;4.692;2023-08-20T12:17:10;102339.19;;;34.03;92.31
12247;BME280;6186;52.022;4.692;2023-08-20T12:19:35;102343.19;;;33.81;89.15
12247;BME280;6186;52.022;4.692;2023-08-20T12:22:00;102344.81;;;33.47;86.61
12247;BME280;6186;52.022;4.692;2023-08-20T12:24:25;102349.88;;;33.33;86.64
12247;BME280;6186;52.022;4.692;2023-08-20T12:26:51;102343.28;;;33.25;86.12
12247;BME280;6186;52.022;4.692;2023-08-20T12:29:16;102337.31;;;32.93;83.13
12247;BME280;6186;52.022;4.692;2023-08-20T12:31:41;102332.31;;;32.79;83.16
12247;BME280;6186;52.022;4.692;2023-08-20T12:34:06;102334.47;;;32.85;83.93
12247;BME280;6186;52.022;4.692;2023-08-20T12:36:32;102332.00;;;32.82;82.96
12247;BME280;6186;52.022;4.692;2023-08-20T12:38:57;102338.34;;;32.83;82.99
12247;BME280;6186;52.022;4.692;2023-08-20T12:41:22;102332.19;;;32.71;81.70
12247;BME280;6186;52.022;4.692;2023-08-20T12:43:48;102338.50;;;32.62;81.14
12247;BME280;6186;52.022;4.692;2023-08-20T12:46:13;102338.06;;;32.67;80.89
12247;BME280;6186;52.022;4.692;2023-08-20T12:48:38;102332.50;;;32.68;80.68
12247;BME280;6186;52.022;4.692;2023-08-20T12:51:03;102338.34;;;32.73;79.94
12247;BME280;6186;52.022;4.692;2023-08-20T12:53:29;102327.16;;;32.67;78.72
12247;BME280;6186;52.022;4.692;2023-08-20T12:55:54;102337.97;;;32.49;77.27
12247;BME280;6186;52.022;4.692;2023-08-20T12:58:19;102336.06;;;32.21;76.09
12247;BME280;6186;52.022;4.692;2023-08-20T13:00:44;102335.16;;;32.11;76.33
12247;BME280;6186;52.022;4.692;2023-08-20T13:03:10;102343.06;;;32.14;76.99